createdAt,value
2023-02-11T00:00:23.348Z,9.87
2023-02-11T00:02:50.501Z,10.82
2023-02-11T00:05:17.590Z,10.48
2023-02-11T00:07:44.908Z,9.63
2023-02-11T00:10:11.990Z,10.57
2023-02-11T00:12:39.065Z,12.50
2023-02-11T00:15:08.066Z,10.32
2023-02-11T00:17:35.176Z,10.88
2023-02-11T00:20:02.308Z,10.70
2023-02-11T00:22:29.391Z,11.25
2023-02-11T00:24:57.260Z,10.93
2023-02-11T00:27:24.333Z,11.23
2023-02-11T00:29:51.581Z,10.52
2023-02-11T00:32:18.720Z,12.25
2023-02-11T00:34:45.830Z,11.98
2023-02-11T00:37:13.617Z,12.13
2023-02-11T00:39:40.756Z,11.55
2023-02-11T00:42:08.168Z,12.20
2023-02-11T00:44:35.380Z,11.73
2023-02-11T00:47:02.399Z,12.65
2023-02-11T00:49:29.428Z,11.57
2023-02-11T00:51:56.667Z,11.27
2023-02-11T00:54:23.742Z,12.77
2023-02-11T00:56:50.810Z,11.25
2023-02-11T00:59:17.953Z,12.63
2023-02-11T01:01:45.100Z,12.17
2023-02-11T01:04:12.364Z,10.68
2023-02-11T01:06:39.422Z,12.73
2023-02-11T01:09:06.506Z,11.70
2023-02-11T01:11:33.599Z,11.88
2023-02-11T01:14:00.676Z,12.00
2023-02-11T01:16:27.759Z,12.43
2023-02-11T01:18:54.933Z,11.75
2023-02-11T01:21:22.117Z,11.13
2023-02-11T01:23:49.180Z,12.30
2023-02-11T01:26:17.081Z,11.60
2023-02-11T01:28:44.440Z,7.75
2023-02-11T01:31:11.657Z,12.05
2023-02-11T01:33:38.944Z,10.90
2023-02-11T01:36:07.257Z,12.35
2023-02-11T01:38:35.180Z,11.50
2023-02-11T01:41:07.727Z,11.20
2023-02-11T01:43:46.566Z,11.00
2023-02-11T01:46:35.390Z,11.82
2023-02-11T01:49:11.519Z,11.65
2023-02-11T01:51:58.918Z,10.83
2023-02-11T01:54:49.199Z,9.13
2023-02-11T01:57:23.339Z,11.13
2023-02-11T02:00:11.001Z,11.48
2023-02-11T02:03:02.960Z,10.40
2023-02-11T02:05:42.109Z,10.53
2023-02-11T02:08:21.589Z,11.73
2023-02-11T02:10:53.838Z,12.30
2023-02-11T02:13:21.119Z,11.48
2023-02-11T02:15:59.899Z,10.90
2023-02-11T02:18:37.886Z,9.83
2023-02-11T02:21:22.110Z,11.27
2023-02-11T02:23:58.303Z,12.38
2023-02-11T02:26:44.293Z,11.63
2023-02-11T02:29:40.733Z,9.95
2023-02-11T02:32:38.831Z,11.23
2023-02-11T02:35:25.926Z,10.98
2023-02-11T02:38:28.219Z,11.57
2023-02-11T02:40:59.723Z,11.65
2023-02-11T02:43:27.802Z,10.57
2023-02-11T02:45:55.247Z,10.37
2023-02-11T02:48:31.798Z,10.38
2023-02-11T02:51:15.756Z,11.05
2023-02-11T02:54:00.290Z,10.73
2023-02-11T02:57:12.272Z,11.20
2023-02-11T03:00:02.054Z,11.30
2023-02-11T03:02:45.630Z,9.85
2023-02-11T03:05:21.405Z,10.40
2023-02-11T03:07:57.253Z,10.02
2023-02-11T03:10:34.530Z,11.05
2023-02-11T03:13:02.784Z,9.93
2023-02-11T03:15:32.678Z,10.52
2023-02-11T03:18:01.998Z,10.70
2023-02-11T03:20:30.851Z,9.85
2023-02-11T03:23:08.762Z,10.02
2023-02-11T03:25:46.196Z,8.17
2023-02-11T03:28:21.894Z,9.98
2023-02-11T03:31:14.041Z,10.75
2023-02-11T03:33:54.420Z,10.40
2023-02-11T03:36:32.613Z,11.38
2023-02-11T03:39:00.403Z,11.13
2023-02-11T03:41:27.689Z,10.38
2023-02-11T03:43:57.114Z,10.75
2023-02-11T03:46:29.103Z,10.85
2023-02-11T03:49:01.544Z,9.20
2023-02-11T03:51:29.538Z,11.40
2023-02-11T03:53:58.504Z,10.63
2023-02-11T03:56:28.878Z,10.25
2023-02-11T03:58:56.029Z,11.13
2023-02-11T04:01:23.199Z,9.70
2023-02-11T04:03:50.292Z,10.03
2023-02-11T04:06:17.353Z,9.95
2023-02-11T04:08:44.554Z,9.55
2023-02-11T04:11:11.601Z,10.30
2023-02-11T04:13:38.715Z,11.13
2023-02-11T04:16:05.897Z,10.67
2023-02-11T04:18:33.033Z,9.35
2023-02-11T04:21:00.157Z,10.40
2023-02-11T04:23:27.418Z,7.25
2023-02-11T04:25:54.664Z,10.80
2023-02-11T04:28:21.800Z,11.00
2023-02-11T04:30:51.909Z,8.75
2023-02-11T04:33:19.001Z,10.15
2023-02-11T04:35:46.112Z,12.15
2023-02-11T04:38:13.775Z,10.15
2023-02-11T04:40:40.960Z,11.27
2023-02-11T04:43:08.127Z,9.93
2023-02-11T04:45:35.390Z,11.20
2023-02-11T04:48:03.325Z,10.20
2023-02-11T04:50:30.625Z,10.25
2023-02-11T04:52:57.699Z,10.67
2023-02-11T04:55:24.752Z,10.63
2023-02-11T04:57:51.785Z,10.68
2023-02-11T05:00:19.279Z,10.50
2023-02-11T05:02:46.371Z,11.05
2023-02-11T05:05:13.492Z,10.53
2023-02-11T05:07:41.048Z,10.02
2023-02-11T05:10:08.315Z,10.70
2023-02-11T05:12:35.354Z,10.65
2023-02-11T05:15:02.518Z,9.25
2023-02-11T05:17:29.900Z,11.30
2023-02-11T05:19:56.966Z,10.23
2023-02-11T05:22:24.060Z,11.05
2023-02-11T05:24:51.124Z,10.60
2023-02-11T05:27:18.199Z,10.40
2023-02-11T05:29:45.273Z,8.27
2023-02-11T05:32:12.376Z,10.38
2023-02-11T05:34:39.424Z,10.75
2023-02-11T05:37:06.527Z,11.07
2023-02-11T05:39:33.706Z,10.88
2023-02-11T05:42:00.851Z,10.30
2023-02-11T05:44:27.964Z,10.73
2023-02-11T05:46:55.008Z,10.02
2023-02-11T05:49:22.081Z,10.27
2023-02-11T05:51:49.384Z,10.48
2023-02-11T05:54:17.035Z,9.27
2023-02-11T05:56:45.008Z,11.43
2023-02-11T05:59:14.522Z,9.70
2023-02-11T06:01:41.649Z,10.77
2023-02-11T06:04:09.043Z,12.52
2023-02-11T06:06:36.116Z,12.60
2023-02-11T06:09:03.469Z,10.82
2023-02-11T06:11:30.548Z,11.43
2023-02-11T06:13:57.589Z,11.13
2023-02-11T06:16:24.762Z,9.98
2023-02-11T06:18:51.902Z,10.30
2023-02-11T06:21:19.095Z,9.65
2023-02-11T06:23:46.152Z,10.38
2023-02-11T06:26:21.818Z,12.82
2023-02-11T06:28:49.572Z,11.05
2023-02-11T06:31:17.159Z,11.83
2023-02-11T06:33:44.525Z,10.60
2023-02-11T06:36:15.446Z,11.70
2023-02-11T06:38:42.550Z,10.32
2023-02-11T06:41:11.479Z,10.13
2023-02-11T06:43:38.622Z,9.93
2023-02-11T06:46:05.899Z,10.57
2023-02-11T06:48:33.525Z,10.40
2023-02-11T06:51:05.450Z,11.60
2023-02-11T06:53:35.962Z,10.43
2023-02-11T06:56:07.551Z,11.40
2023-02-11T06:58:35.023Z,10.55
2023-02-11T07:01:10.224Z,10.43
2023-02-11T07:03:39.345Z,10.95
2023-02-11T07:06:12.987Z,10.68
2023-02-11T07:08:40.524Z,10.43
2023-02-11T07:11:12.259Z,11.73
2023-02-11T07:13:39.388Z,10.77
2023-02-11T07:16:12.922Z,11.20
2023-02-11T07:18:40.094Z,11.88
2023-02-11T07:21:08.863Z,11.93
2023-02-11T07:23:36.839Z,15.50
2023-02-11T07:26:12.402Z,11.27
2023-02-11T07:28:40.618Z,11.05
2023-02-11T07:31:15.998Z,11.27
2023-02-11T07:33:46.000Z,11.17
2023-02-11T07:36:14.715Z,12.00
2023-02-11T07:38:42.250Z,12.60
2023-02-11T07:41:11.772Z,12.23
2023-02-11T07:43:39.819Z,11.23
2023-02-11T07:46:09.110Z,11.83
2023-02-11T07:48:36.206Z,12.13
2023-02-11T07:51:26.581Z,11.45
2023-02-11T07:53:55.485Z,11.70
2023-02-11T07:56:23.019Z,12.85
2023-02-11T07:58:50.520Z,12.83
2023-02-11T08:01:25.348Z,13.18
2023-02-11T08:03:53.077Z,12.68
2023-02-11T08:06:21.434Z,13.35
2023-02-11T08:08:49.179Z,12.32
2023-02-11T08:11:18.961Z,12.77
2023-02-11T08:13:46.586Z,11.82
2023-02-11T08:16:28.928Z,11.70
2023-02-11T08:18:57.859Z,12.30
2023-02-11T08:21:25.280Z,12.90
2023-02-11T08:23:52.563Z,14.57
2023-02-11T08:26:26.006Z,10.75
2023-02-11T08:28:54.573Z,13.35
2023-02-11T08:31:26.770Z,11.45
2023-02-11T08:33:55.054Z,13.15
2023-02-11T08:36:23.640Z,12.97
2023-02-11T08:38:50.778Z,12.98
2023-02-11T08:41:18.266Z,13.18
2023-02-11T08:43:47.194Z,12.73
2023-02-11T08:46:17.029Z,13.32
2023-02-11T08:48:45.081Z,13.57
2023-02-11T08:51:20.906Z,13.05
2023-02-11T08:53:48.215Z,12.80
2023-02-11T08:56:16.556Z,13.93
2023-02-11T08:58:43.962Z,13.25
2023-02-11T09:01:17.663Z,13.63
2023-02-11T09:03:44.755Z,13.00
2023-02-11T09:06:13.900Z,12.68
2023-02-11T09:08:45.327Z,11.48
2023-02-11T09:11:13.780Z,13.23
2023-02-11T09:13:42.594Z,12.73
2023-02-11T09:16:17.439Z,13.48
2023-02-11T09:18:45.619Z,14.55
2023-02-11T09:21:13.212Z,14.45
2023-02-11T09:23:43.490Z,13.20
2023-02-11T09:26:15.762Z,15.43
2023-02-11T09:28:42.885Z,13.30
2023-02-11T09:31:12.342Z,8.38
2023-02-11T09:33:42.311Z,13.50
2023-02-11T09:36:09.455Z,13.20
2023-02-11T09:38:36.495Z,13.53
2023-02-11T09:41:07.584Z,13.57
2023-02-11T09:43:44.220Z,15.20
2023-02-11T09:46:15.542Z,13.80
2023-02-11T09:48:44.331Z,12.73
2023-02-11T09:51:33.194Z,14.33
2023-02-11T09:54:05.614Z,13.85
2023-02-11T09:56:33.019Z,14.48
2023-02-11T09:59:00.119Z,13.88
2023-02-11T10:01:53.341Z,14.50
2023-02-11T10:04:39.644Z,12.53
2023-02-11T10:07:21.477Z,12.93
2023-02-11T10:10:17.706Z,11.15
2023-02-11T10:13:03.897Z,13.43
2023-02-11T10:16:05.376Z,12.48
2023-02-11T10:18:38.724Z,14.30
2023-02-11T10:21:18.024Z,11.20
2023-02-11T10:23:48.158Z,13.48
2023-02-11T10:26:17.371Z,13.48
2023-02-11T10:28:46.652Z,13.25
2023-02-11T10:31:22.621Z,13.60
2023-02-11T10:34:04.047Z,11.90
2023-02-11T10:36:34.797Z,12.68
2023-02-11T10:39:12.213Z,13.18
2023-02-11T10:41:44.457Z,12.50
2023-02-11T10:44:32.937Z,13.60
2023-02-11T10:47:09.880Z,13.60
2023-02-11T10:49:45.041Z,12.02
2023-02-11T10:52:24.254Z,13.27
2023-02-11T10:55:14.790Z,6.38
2023-02-11T10:57:49.725Z,13.27
2023-02-11T11:00:29.592Z,13.30
2023-02-11T11:02:59.015Z,12.93
2023-02-11T11:05:47.530Z,13.63
2023-02-11T11:08:15.847Z,11.68
2023-02-11T11:10:48.856Z,12.73
2023-02-11T11:13:26.439Z,12.63
2023-02-11T11:16:18.707Z,12.23
2023-02-11T11:18:48.246Z,12.18
2023-02-11T11:21:23.385Z,12.70
2023-02-11T11:23:54.070Z,11.67
2023-02-11T11:26:21.612Z,12.93
2023-02-11T11:29:10.546Z,11.70
2023-02-11T11:31:55.279Z,10.48
2023-02-11T11:34:30.964Z,12.80
2023-02-11T11:37:00.042Z,12.27
2023-02-11T11:39:31.677Z,12.88
2023-02-11T11:42:00.632Z,10.15
2023-02-11T11:44:29.265Z,13.35
2023-02-11T11:47:11.471Z,12.90
2023-02-11T11:49:49.554Z,11.67
2023-02-11T11:52:36.495Z,10.18
2023-02-11T11:55:25.652Z,13.32
2023-02-11T11:57:53.061Z,10.93
2023-02-11T12:00:24.153Z,12.63
2023-02-11T12:03:13.072Z,12.23
2023-02-11T12:06:07.524Z,10.40
2023-02-11T12:08:46.495Z,12.48
2023-02-11T12:11:16.516Z,12.00
2023-02-11T12:13:59.363Z,12.52
2023-02-11T12:16:54.952Z,12.53
2023-02-11T12:19:52.943Z,12.20
2023-02-11T12:22:44.399Z,11.38
2023-02-11T12:25:25.443Z,12.75
2023-02-11T12:28:23.657Z,13.23
2023-02-11T12:31:03.358Z,11.47
2023-02-11T12:33:58.328Z,11.07
2023-02-11T12:36:47.421Z,11.38
2023-02-11T12:39:26.214Z,12.73
2023-02-11T12:42:35.814Z,11.27
2023-02-11T12:45:11.620Z,11.60
2023-02-11T12:48:15.384Z,12.68
2023-02-11T12:50:45.641Z,10.70
2023-02-11T12:53:25.800Z,11.57
2023-02-11T12:55:58.472Z,12.20
2023-02-11T12:58:39.478Z,10.73
2023-02-11T13:01:33.918Z,11.80
2023-02-11T13:04:17.148Z,12.10
2023-02-11T13:06:47.771Z,12.32
2023-02-11T13:09:28.374Z,11.63
2023-02-11T13:11:58.038Z,11.33
2023-02-11T13:14:35.495Z,12.68
2023-02-11T13:17:06.784Z,10.13
2023-02-11T13:19:42.683Z,12.15
2023-02-11T13:22:18.884Z,12.43
2023-02-11T13:25:06.157Z,11.70
2023-02-11T13:27:51.635Z,11.57
2023-02-11T13:30:30.334Z,11.32
2023-02-11T13:32:57.387Z,12.48
2023-02-11T13:35:37.483Z,11.13
2023-02-11T13:38:21.622Z,11.37
2023-02-11T13:41:02.007Z,11.18
2023-02-11T13:43:30.104Z,9.55
2023-02-11T13:45:59.296Z,11.32
2023-02-11T13:48:31.974Z,11.35
2023-02-11T13:51:01.150Z,11.07
2023-02-11T13:53:28.740Z,11.70
2023-02-11T13:56:12.162Z,11.05
2023-02-11T13:58:50.054Z,10.80
2023-02-11T14:02:12.467Z,12.18
2023-02-11T14:05:21.099Z,11.67
2023-02-11T14:08:28.409Z,9.18
2023-02-11T14:11:00.138Z,10.85
2023-02-11T14:13:32.004Z,11.27
2023-02-11T14:16:20.498Z,10.95
2023-02-11T14:18:55.353Z,11.90
2023-02-11T14:21:32.311Z,10.77
2023-02-11T14:24:19.243Z,10.18
2023-02-11T14:26:58.966Z,9.00
2023-02-11T14:29:51.095Z,10.43
2023-02-11T14:32:56.173Z,10.93
2023-02-11T14:35:37.278Z,9.57
2023-02-11T14:38:22.447Z,10.27
2023-02-11T14:41:04.525Z,11.65
2023-02-11T14:43:36.373Z,11.32
2023-02-11T14:46:03.596Z,10.40
2023-02-11T14:48:36.560Z,9.55
2023-02-11T14:51:10.613Z,10.27
2023-02-11T14:53:38.144Z,10.82
2023-02-11T14:56:21.635Z,10.68
2023-02-11T14:58:51.649Z,9.53
2023-02-11T15:01:29.471Z,11.93
2023-02-11T15:03:56.998Z,12.45
2023-02-11T15:06:39.524Z,10.18
2023-02-11T15:09:30.666Z,11.35
2023-02-11T15:11:58.225Z,10.40
2023-02-11T15:14:29.067Z,9.90
2023-02-11T15:17:01.457Z,11.35
2023-02-11T15:19:34.269Z,11.23
2023-02-11T15:22:04.927Z,10.80
2023-02-11T15:24:35.034Z,10.23
2023-02-11T15:27:18.449Z,11.13
2023-02-11T15:29:51.346Z,10.68
2023-02-11T15:32:21.699Z,10.23
2023-02-11T15:34:50.645Z,10.10
2023-02-11T15:37:22.200Z,15.07
2023-02-11T15:39:51.001Z,12.85
2023-02-11T15:42:34.077Z,11.07
2023-02-11T15:45:11.760Z,10.18
2023-02-11T15:47:40.151Z,10.23
2023-02-11T15:50:07.990Z,11.47
2023-02-11T15:52:35.673Z,11.35
2023-02-11T15:55:02.873Z,9.70
2023-02-11T15:57:30.207Z,9.65
2023-02-11T15:59:58.724Z,10.13
2023-02-11T16:02:33.336Z,10.13
2023-02-11T16:05:03.788Z,10.50
2023-02-11T16:07:52.421Z,9.75
2023-02-11T16:10:24.046Z,9.73
2023-02-11T16:12:53.123Z,9.23
2023-02-11T16:15:38.226Z,9.03
2023-02-11T16:18:15.175Z,10.98
2023-02-11T16:20:47.282Z,10.50
2023-02-11T16:23:23.558Z,10.40
2023-02-11T16:25:59.662Z,10.13
2023-02-11T16:28:27.471Z,10.53
2023-02-11T16:30:55.505Z,10.18
2023-02-11T16:33:22.652Z,10.02
2023-02-11T16:35:49.908Z,9.70
2023-02-11T16:38:18.585Z,10.57
2023-02-11T16:40:49.167Z,10.73
2023-02-11T16:43:19.222Z,10.82
2023-02-11T16:45:47.016Z,9.75
2023-02-11T16:48:18.030Z,10.40
2023-02-11T16:50:48.617Z,11.00
2023-02-11T16:53:20.111Z,11.70
2023-02-11T16:55:47.198Z,9.90
2023-02-11T16:58:14.366Z,10.35
2023-02-11T17:00:41.781Z,10.25
2023-02-11T17:03:09.171Z,10.48
2023-02-11T17:05:53.090Z,11.00
2023-02-11T17:08:21.944Z,12.88
2023-02-11T17:10:49.474Z,11.90
2023-02-11T17:13:16.844Z,11.68
2023-02-11T17:15:44.005Z,10.88
2023-02-11T17:18:13.731Z,10.63
2023-02-11T17:20:41.206Z,9.57
2023-02-11T17:23:08.277Z,11.70
2023-02-11T17:25:37.384Z,11.60
2023-02-11T17:28:09.201Z,11.93
2023-02-11T17:30:36.377Z,10.90
2023-02-11T17:33:03.410Z,9.82
2023-02-11T17:35:30.653Z,11.35
2023-02-11T17:37:58.677Z,11.10
2023-02-11T17:40:26.409Z,10.55
2023-02-11T17:42:53.488Z,11.70
2023-02-11T17:45:22.422Z,10.85
2023-02-11T17:47:50.218Z,10.05
2023-02-11T17:50:17.316Z,12.23
2023-02-11T17:52:44.366Z,10.85
2023-02-11T17:55:11.564Z,11.57
2023-02-11T17:57:38.761Z,12.15
2023-02-11T18:00:09.355Z,12.07
2023-02-11T18:02:36.648Z,11.95
2023-02-11T18:05:04.282Z,12.00
2023-02-11T18:07:31.344Z,11.93
2023-02-11T18:09:58.536Z,11.32
2023-02-11T18:12:26.141Z,11.52
2023-02-11T18:14:57.479Z,8.32
2023-02-11T18:17:25.420Z,10.70
2023-02-11T18:19:56.683Z,12.23
2023-02-11T18:22:24.598Z,12.00
2023-02-11T18:24:53.352Z,11.13
2023-02-11T18:27:23.447Z,11.90
2023-02-11T18:29:50.594Z,11.68
2023-02-11T18:32:17.635Z,11.10
2023-02-11T18:34:44.717Z,12.35
2023-02-11T18:37:13.369Z,12.80
2023-02-11T18:39:40.976Z,12.55
2023-02-11T18:42:08.931Z,12.00
2023-02-11T18:44:36.801Z,12.10
2023-02-11T18:47:04.220Z,11.80
2023-02-11T18:49:32.925Z,11.35
2023-02-11T18:52:00.030Z,11.60
2023-02-11T18:54:27.148Z,12.15
2023-02-11T18:56:54.248Z,10.53
2023-02-11T18:59:21.345Z,11.50
2023-02-11T19:01:48.451Z,11.15
2023-02-11T19:04:19.770Z,12.10
2023-02-11T19:06:48.708Z,11.23
2023-02-11T19:09:18.395Z,10.77
2023-02-11T19:11:49.899Z,11.23
2023-02-11T19:14:20.039Z,12.00
2023-02-11T19:16:50.088Z,10.43
2023-02-11T19:19:17.667Z,10.13
2023-02-11T19:21:45.822Z,10.50
2023-02-11T19:24:16.069Z,11.00
2023-02-11T19:26:43.292Z,10.35
2023-02-11T19:29:10.538Z,9.63
2023-02-11T19:31:38.255Z,10.52
2023-02-11T19:34:07.442Z,10.63
2023-02-11T19:36:34.619Z,10.00
2023-02-11T19:39:02.893Z,9.07
2023-02-11T19:41:31.528Z,9.45
2023-02-11T19:43:58.578Z,8.55
2023-02-11T19:46:27.673Z,9.30
2023-02-11T19:48:55.084Z,8.40
2023-02-11T19:51:22.636Z,8.98
2023-02-11T19:53:50.984Z,8.00
2023-02-11T19:56:20.749Z,8.77
2023-02-11T19:58:48.025Z,7.87
2023-02-11T20:01:18.376Z,7.78
2023-02-11T20:03:49.842Z,7.05
2023-02-11T20:06:26.044Z,7.15
2023-02-11T20:08:57.198Z,8.18
2023-02-11T20:11:25.724Z,7.63
2023-02-11T20:13:52.821Z,7.20
2023-02-11T20:16:21.689Z,7.93
2023-02-11T20:18:49.742Z,7.25
2023-02-11T20:21:24.868Z,7.60
2023-02-11T20:23:52.618Z,7.13
2023-02-11T20:26:24.855Z,6.10
2023-02-11T20:28:52.996Z,7.25
2023-02-11T20:31:20.388Z,7.18
2023-02-11T20:33:47.899Z,6.50
2023-02-11T20:36:17.882Z,7.60
2023-02-11T20:38:45.165Z,6.40
2023-02-11T20:41:16.104Z,7.35
2023-02-11T20:43:46.035Z,6.70
2023-02-11T20:46:15.352Z,6.78
2023-02-11T20:48:43.057Z,6.50
2023-02-11T20:51:15.946Z,7.55
2023-02-11T20:53:44.755Z,6.78
2023-02-11T20:56:12.419Z,5.97
2023-02-11T20:58:39.650Z,6.45
2023-02-11T21:01:16.820Z,7.33
2023-02-11T21:03:46.685Z,6.45
2023-02-11T21:06:13.759Z,7.45
2023-02-11T21:08:40.822Z,6.88
2023-02-11T21:11:09.320Z,7.82
2023-02-11T21:13:37.724Z,6.17
2023-02-11T21:16:05.361Z,6.82
2023-02-11T21:18:33.302Z,6.97
2023-02-11T21:21:00.709Z,6.85
2023-02-11T21:23:29.051Z,5.85
2023-02-11T21:25:57.142Z,6.50
2023-02-11T21:28:26.430Z,5.88
2023-02-11T21:30:55.520Z,5.68
2023-02-11T21:33:24.412Z,6.22
2023-02-11T21:35:56.141Z,6.07
2023-02-11T21:38:23.967Z,6.33
2023-02-11T21:40:52.490Z,6.18
2023-02-11T21:43:19.834Z,6.05
2023-02-11T21:45:48.772Z,5.90
2023-02-11T21:48:16.351Z,6.10
2023-02-11T21:50:45.820Z,6.17
2023-02-11T21:53:13.527Z,7.00
2023-02-11T21:55:40.895Z,6.07
2023-02-11T21:58:08.536Z,5.82
2023-02-11T22:00:35.645Z,6.38
2023-02-11T22:03:03.251Z,6.43
2023-02-11T22:05:30.510Z,7.40
2023-02-11T22:07:57.540Z,6.57
2023-02-11T22:10:24.716Z,6.75
2023-02-11T22:12:51.781Z,6.25
2023-02-11T22:15:18.984Z,6.30
2023-02-11T22:17:46.005Z,6.47
2023-02-11T22:20:13.129Z,6.43
2023-02-11T22:22:40.193Z,6.97
2023-02-11T22:25:09.833Z,6.55
2023-02-11T22:27:37.135Z,7.40
2023-02-11T22:30:05.559Z,7.88
2023-02-11T22:32:32.876Z,7.85
2023-02-11T22:35:00.006Z,9.02
2023-02-11T22:37:27.083Z,12.23
2023-02-11T22:39:54.403Z,8.40
2023-02-11T22:42:21.757Z,7.93
2023-02-11T22:44:48.814Z,8.10
2023-02-11T22:47:16.464Z,8.07
2023-02-11T22:49:43.564Z,9.90
2023-02-11T22:52:10.593Z,8.80
2023-02-11T22:54:37.796Z,8.30
2023-02-11T22:57:05.573Z,8.18
2023-02-11T22:59:32.610Z,8.32
2023-02-11T23:02:00.200Z,9.02
2023-02-11T23:04:27.360Z,7.40
2023-02-11T23:06:54.378Z,8.15
2023-02-11T23:09:21.428Z,9.02
2023-02-11T23:11:49.379Z,8.68
2023-02-11T23:14:16.546Z,8.77
2023-02-11T23:16:43.760Z,8.00
2023-02-11T23:19:10.888Z,8.55
2023-02-11T23:21:39.118Z,7.50
2023-02-11T23:24:10.035Z,7.55
2023-02-11T23:26:39.335Z,7.57
2023-02-11T23:29:06.805Z,7.57
2023-02-11T23:31:37.740Z,7.85
2023-02-11T23:34:06.080Z,7.30
2023-02-11T23:36:33.551Z,8.90
2023-02-11T23:39:00.890Z,9.20
2023-02-11T23:41:28.835Z,8.80
2023-02-11T23:43:57.856Z,8.63
2023-02-11T23:46:26.751Z,7.47
2023-02-11T23:48:53.972Z,8.15
2023-02-11T23:51:22.084Z,8.45
2023-02-11T23:53:49.669Z,7.77
2023-02-11T23:56:19.948Z,8.20
2023-02-11T23:58:49.395Z,8.98
